sensor_id;sensor_type;location;lat;lon;timestamp;pressure;altitude;pressure_sealevel;temperature;humidity
21956;BME280;11142;49.930;8.606;2023-03-03T00:01:35;100443.63;;;2.92;100.00
21956;BME280;11142;49.930;8.606;2023-03-03T00:04:03;100443.97;;;2.80;100.00
21956;BME280;11142;49.930;8.606;2023-03-03T00:06:31;100436.34;;;2.79;100.00
21956;BME280;11142;49.930;8.606;2023-03-03T00:08:59;100432.78;;;2.83;100.00
21956;BME280;11142;49.930;8.606;2023-03-03T00:11:28;100435.09;;;2.92;100.00
21956;BME280;11142;49.930;8.606;2023-03-03T00:13:57;100435.06;;;2.93;100.00
21956;BME280;11142;49.930;8.606;2023-03-03T00:16:27;100433.28;;;2.97;100.00
21956;BME280;11142;49.930;8.606;2023-03-03T00:18:56;100441.13;;;2.91;100.00
21956;BME280;11142;49.930;8.606;2023-03-03T00:21:26;100443.09;;;2.81;100.00
21956;BME280;11142;49.930;8.606;2023-03-03T00:23:58;100447.34;;;2.82;100.00
21956;BME280;11142;49.930;8.606;2023-03-03T00:26:30;100440.31;;;2.89;100.00
21956;BME280;11142;49.930;8.606;2023-03-03T00:29:03;100451.22;;;2.97;100.00
21956;BME280;11142;49.930;8.606;2023-03-03T00:31:50;100457.53;;;2.84;100.00
21956;BME280;11142;49.930;8.606;2023-03-03T00:34:19;100457.81;;;2.73;100.00
21956;BME280;11142;49.930;8.606;2023-03-03T00:36:52;100463.06;;;2.68;100.00
21956;BME280;11142;49.930;8.606;2023-03-03T00:39:25;100473.09;;;2.76;100.00
21956;BME280;11142;49.930;8.606;2023-03-03T00:41:54;100468.03;;;2.75;100.00
21956;BME280;11142;49.930;8.606;2023-03-03T00:44:32;100474.94;;;2.73;100.00
21956;BME280;11142;49.930;8.606;2023-03-03T00:47:10;100471.47;;;2.74;100.00
21956;BME280;11142;49.930;8.606;2023-03-03T00:49:41;100472.50;;;2.66;100.00
21956;BME280;11142;49.930;8.606;2023-03-03T00:52:10;100480.63;;;2.48;100.00
21956;BME280;11142;49.930;8.606;2023-03-03T00:54:39;100486.59;;;2.50;100.00
21956;BME280;11142;49.930;8.606;2023-03-03T00:57:08;100485.06;;;2.42;100.00
21956;BME280;11142;49.930;8.606;2023-03-03T00:59:41;100484.34;;;2.37;100.00
21956;BME280;11142;49.930;8.606;2023-03-03T01:02:12;100479.09;;;2.41;100.00
21956;BME280;11142;49.930;8.606;2023-03-03T01:04:40;100484.09;;;2.47;100.00
21956;BME280;11142;49.930;8.606;2023-03-03T01:07:11;100488.16;;;2.54;100.00
21956;BME280;11142;49.930;8.606;2023-03-03T01:09:39;100483.03;;;2.54;100.00
21956;BME280;11142;49.930;8.606;2023-03-03T01:12:07;100483.19;;;2.50;100.00
21956;BME280;11142;49.930;8.606;2023-03-03T01:14:36;100479.75;;;2.49;100.00
21956;BME280;11142;49.930;8.606;2023-03-03T01:17:06;100481.41;;;2.52;100.00
21956;BME280;11142;49.930;8.606;2023-03-03T01:19:34;100477.91;;;2.54;100.00
21956;BME280;11142;49.930;8.606;2023-03-03T01:22:02;100476.66;;;2.37;100.00
21956;BME280;11142;49.930;8.606;2023-03-03T01:24:30;100474.44;;;2.57;100.00
21956;BME280;11142;49.930;8.606;2023-03-03T01:26:59;100468.19;;;2.68;100.00
21956;BME280;11142;49.930;8.606;2023-03-03T01:29:27;100468.81;;;2.77;100.00
21956;BME280;11142;49.930;8.606;2023-03-03T01:31:56;100470.25;;;2.88;100.00
21956;BME280;11142;49.930;8.606;2023-03-03T01:34:25;100472.59;;;2.96;100.00
21956;BME280;11142;49.930;8.606;2023-03-03T01:36:53;100471.63;;;3.00;100.00
21956;BME280;11142;49.930;8.606;2023-03-03T01:39:21;100473.63;;;2.89;100.00
21956;BME280;11142;49.930;8.606;2023-03-03T01:41:49;100478.72;;;2.90;100.00
21956;BME280;11142;49.930;8.606;2023-03-03T01:44:18;100477.75;;;2.62;100.00
21956;BME280;11142;49.930;8.606;2023-03-03T01:46:48;100472.94;;;2.48;100.00
21956;BME280;11142;49.930;8.606;2023-03-03T01:49:19;100472.03;;;2.51;100.00
21956;BME280;11142;49.930;8.606;2023-03-03T01:51:51;100470.53;;;2.42;100.00
21956;BME280;11142;49.930;8.606;2023-03-03T01:54:22;100467.81;;;2.50;100.00
21956;BME280;11142;49.930;8.606;2023-03-03T01:56:52;100471.88;;;2.57;100.00
21956;BME280;11142;49.930;8.606;2023-03-03T01:59:24;100470.38;;;2.48;100.00
21956;BME280;11142;49.930;8.606;2023-03-03T02:01:54;100460.13;;;2.50;100.00
21956;BME280;11142;49.930;8.606;2023-03-03T02:04:22;100463.63;;;2.46;100.00
21956;BME280;11142;49.930;8.606;2023-03-03T02:06:55;100467.72;;;2.53;100.00
21956;BME280;11142;49.930;8.606;2023-03-03T02:09:26;100466.41;;;2.37;100.00
21956;BME280;11142;49.930;8.606;2023-03-03T02:11:57;100464.25;;;2.20;100.00
21956;BME280;11142;49.930;8.606;2023-03-03T02:14:28;100462.44;;;2.25;100.00
21956;BME280;11142;49.930;8.606;2023-03-03T02:16:57;100450.28;;;2.33;100.00
21956;BME280;11142;49.930;8.606;2023-03-03T02:19:28;100458.06;;;2.29;100.00
21956;BME280;11142;49.930;8.606;2023-03-03T02:22:00;100455.06;;;2.11;100.00
21956;BME280;11142;49.930;8.606;2023-03-03T02:24:30;100452.69;;;2.04;100.00
21956;BME280;11142;49.930;8.606;2023-03-03T02:27:04;100454.38;;;2.05;100.00
21956;BME280;11142;49.930;8.606;2023-03-03T02:29:33;100454.25;;;2.09;100.00
21956;BME280;11142;49.930;8.606;2023-03-03T02:32:03;100459.78;;;1.93;100.00
21956;BME280;11142;49.930;8.606;2023-03-03T02:34:42;100459.94;;;1.85;100.00
21956;BME280;11142;49.930;8.606;2023-03-03T02:37:12;100452.97;;;1.92;100.00
21956;BME280;11142;49.930;8.606;2023-03-03T02:39:40;100445.75;;;2.09;100.00
21956;BME280;11142;49.930;8.606;2023-03-03T02:42:13;100452.44;;;2.14;100.00
21956;BME280;11142;49.930;8.606;2023-03-03T02:44:48;100445.75;;;2.09;100.00
21956;BME280;11142;49.930;8.606;2023-03-03T02:47:16;100460.28;;;2.07;100.00
21956;BME280;11142;49.930;8.606;2023-03-03T02:49:44;100456.16;;;2.01;100.00
21956;BME280;11142;49.930;8.606;2023-03-03T02:52:12;100465.88;;;1.86;100.00
21956;BME280;11142;49.930;8.606;2023-03-03T02:54:46;100455.88;;;1.75;100.00
21956;BME280;11142;49.930;8.606;2023-03-03T02:57:15;100452.38;;;1.79;100.00
21956;BME280;11142;49.930;8.606;2023-03-03T02:59:44;100453.50;;;1.68;100.00
21956;BME280;11142;49.930;8.606;2023-03-03T03:02:15;100459.34;;;1.73;100.00
21956;BME280;11142;49.930;8.606;2023-03-03T03:04:45;100451.03;;;1.63;100.00
21956;BME280;11142;49.930;8.606;2023-03-03T03:07:18;100457.97;;;1.58;100.00
21956;BME280;11142;49.930;8.606;2023-03-03T03:09:46;100451.25;;;1.52;100.00
21956;BME280;11142;49.930;8.606;2023-03-03T03:12:16;100450.38;;;1.55;100.00
21956;BME280;11142;49.930;8.606;2023-03-03T03:14:46;100450.50;;;1.49;100.00
21956;BME280;11142;49.930;8.606;2023-03-03T03:17:14;100452.84;;;1.58;100.00
21956;BME280;11142;49.930;8.606;2023-03-03T03:19:44;100453.72;;;1.58;100.00
21956;BME280;11142;49.930;8.606;2023-03-03T03:22:12;100455.22;;;1.67;100.00
21956;BME280;11142;49.930;8.606;2023-03-03T03:24:41;100463.34;;;1.86;100.00
21956;BME280;11142;49.930;8.606;2023-03-03T03:27:09;100459.78;;;1.93;100.00
21956;BME280;11142;49.930;8.606;2023-03-03T03:29:39;100454.94;;;1.79;100.00
21956;BME280;11142;49.930;8.606;2023-03-03T03:32:07;100459.50;;;1.67;100.00
21956;BME280;11142;49.930;8.606;2023-03-03T03:34:35;100458.81;;;1.58;100.00
21956;BME280;11142;49.930;8.606;2023-03-03T03:37:04;100458.56;;;1.69;100.00
21956;BME280;11142;49.930;8.606;2023-03-03T03:39:32;100463.03;;;1.61;100.00
21956;BME280;11142;49.930;8.606;2023-03-03T03:42:01;100462.97;;;1.64;100.00
21956;BME280;11142;49.930;8.606;2023-03-03T03:44:29;100461.41;;;1.55;100.00
21956;BME280;11142;49.930;8.606;2023-03-03T03:46:58;100462.38;;;1.51;100.00
21956;BME280;11142;49.930;8.606;2023-03-03T03:49:27;100468.34;;;1.50;100.00
21956;BME280;11142;49.930;8.606;2023-03-03T03:51:57;100468.25;;;1.55;100.00
21956;BME280;11142;49.930;8.606;2023-03-03T03:54:28;100462.25;;;1.56;100.00
21956;BME280;11142;49.930;8.606;2023-03-03T03:56:56;100463.94;;;1.57;100.00
21956;BME280;11142;49.930;8.606;2023-03-03T03:59:24;100463.03;;;1.61;100.00
21956;BME280;11142;49.930;8.606;2023-03-03T04:01:52;100469.47;;;1.37;100.00
21956;BME280;11142;49.930;8.606;2023-03-03T04:04:23;100464.22;;;1.43;100.00
21956;BME280;11142;49.930;8.606;2023-03-03T04:06:52;100463.22;;;1.50;100.00
21956;BME280;11142;49.930;8.606;2023-03-03T04:09:20;100466.69;;;1.48;100.00
21956;BME280;11142;49.930;8.606;2023-03-03T04:11:48;100459.22;;;1.39;100.00
21956;BME280;11142;49.930;8.606;2023-03-03T04:14:16;100470.69;;;1.18;100.00
21956;BME280;11142;49.930;8.606;2023-03-03T04:16:44;100473.19;;;1.23;100.00
21956;BME280;11142;49.930;8.606;2023-03-03T04:19:13;100468.00;;;1.26;100.00
21956;BME280;11142;49.930;8.606;2023-03-03T04:21:44;100465.38;;;1.29;100.00
21956;BME280;11142;49.930;8.606;2023-03-03T04:24:12;100478.47;;;1.12;100.00
21956;BME280;11142;49.930;8.606;2023-03-03T04:26:40;100477.63;;;1.12;100.00
21956;BME280;11142;49.930;8.606;2023-03-03T04:29:10;100481.25;;;1.01;100.00
21956;BME280;11142;49.930;8.606;2023-03-03T04:31:39;100482.13;;;1.00;100.00
21956;BME280;11142;49.930;8.606;2023-03-03T04:34:08;100481.91;;;1.11;100.00
21956;BME280;11142;49.930;8.606;2023-03-03T04:36:37;100486.97;;;1.14;100.00
21956;BME280;11142;49.930;8.606;2023-03-03T04:39:09;100490.41;;;1.13;100.00
21956;BME280;11142;49.930;8.606;2023-03-03T04:41:37;100487.06;;;1.10;100.00
21956;BME280;11142;49.930;8.606;2023-03-03T04:44:05;100487.22;;;1.00;100.00
21956;BME280;11142;49.930;8.606;2023-03-03T04:46:33;100497.41;;;1.02;100.00
21956;BME280;11142;49.930;8.606;2023-03-03T04:49:02;100487.28;;;0.97;100.00
21956;BME280;11142;49.930;8.606;2023-03-03T04:51:35;100494.25;;;0.88;100.00
21956;BME280;11142;49.930;8.606;2023-03-03T04:54:03;100493.34;;;0.90;100.00
21956;BME280;11142;49.930;8.606;2023-03-03T04:56:33;100486.56;;;0.89;100.00
21956;BME280;11142;49.930;8.606;2023-03-03T04:59:01;100490.84;;;0.87;100.00
21956;BME280;11142;49.930;8.606;2023-03-03T05:01:29;100489.06;;;0.92;100.00
21956;BME280;11142;49.930;8.606;2023-03-03T05:03:57;100485.63;;;0.93;100.00
21956;BME280;11142;49.930;8.606;2023-03-03T05:06:25;100485.63;;;0.93;100.00
21956;BME280;11142;49.930;8.606;2023-03-03T05:08:56;100493.22;;;0.98;100.00
21956;BME280;11142;49.930;8.606;2023-03-03T05:11:24;100490.63;;;0.99;100.00
21956;BME280;11142;49.930;8.606;2023-03-03T05:13:54;100493.34;;;0.92;100.00
21956;BME280;11142;49.930;8.606;2023-03-03T05:16:22;100490.06;;;0.85;100.00
21956;BME280;11142;49.930;8.606;2023-03-03T05:18:50;100483.25;;;0.84;100.00
21956;BME280;11142;49.930;8.606;2023-03-03T05:21:18;100485.00;;;0.82;100.00
21956;BME280;11142;49.930;8.606;2023-03-03T05:23:45;100491.72;;;0.86;100.00
21956;BME280;11142;49.930;8.606;2023-03-03T05:26:13;100489.97;;;0.90;100.00
21956;BME280;11142;49.930;8.606;2023-03-03T05:28:42;100488.19;;;0.95;100.00
21956;BME280;11142;49.930;8.606;2023-03-03T05:31:11;100501.81;;;0.92;100.00
21956;BME280;11142;49.930;8.606;2023-03-03T05:33:39;100498.31;;;0.99;100.00
21956;BME280;11142;49.930;8.606;2023-03-03T05:36:07;100501.78;;;0.95;100.00
21956;BME280;11142;49.930;8.606;2023-03-03T05:38:35;100501.09;;;0.86;100.00
21956;BME280;11142;49.930;8.606;2023-03-03T05:41:03;100499.53;;;0.79;100.00
21956;BME280;11142;49.930;8.606;2023-03-03T05:43:33;100498.75;;;0.74;100.00
21956;BME280;11142;49.930;8.606;2023-03-03T05:46:00;100498.16;;;0.60;100.00
21956;BME280;11142;49.930;8.606;2023-03-03T05:48:30;100503.22;;;0.63;100.00
21956;BME280;11142;49.930;8.606;2023-03-03T05:50:58;100499.81;;;0.61;100.00
21956;BME280;11142;49.930;8.606;2023-03-03T05:53:26;100498.25;;;0.52;100.00
21956;BME280;11142;49.930;8.606;2023-03-03T05:55:55;100504.31;;;0.45;100.00
21956;BME280;11142;49.930;8.606;2023-03-03T05:58:23;100504.44;;;0.39;100.00
21956;BME280;11142;49.930;8.606;2023-03-03T06:00:51;100507.81;;;0.41;100.00
21956;BME280;11142;49.930;8.606;2023-03-03T06:03:19;100506.97;;;0.39;100.00
21956;BME280;11142;49.930;8.606;2023-03-03T06:05:49;100504.38;;;0.42;100.00
21956;BME280;11142;49.930;8.606;2023-03-03T06:08:17;100508.72;;;0.37;100.00
21956;BME280;11142;49.930;8.606;2023-03-03T06:10:45;100517.28;;;0.34;100.00
21956;BME280;11142;49.930;8.606;2023-03-03T06:13:13;100522.19;;;0.46;100.00
21956;BME280;11142;49.930;8.606;2023-03-03T06:15:42;100527.25;;;0.49;100.00
21956;BME280;11142;49.930;8.606;2023-03-03T06:18:10;100537.31;;;0.60;100.00
21956;BME280;11142;49.930;8.606;2023-03-03T06:20:38;100543.75;;;0.26;100.00
21956;BME280;11142;49.930;8.606;2023-03-03T06:23:08;100539.34;;;0.37;100.00
21956;BME280;11142;49.930;8.606;2023-03-03T06:25:37;100539.22;;;0.46;100.00
21956;BME280;11142;49.930;8.606;2023-03-03T06:28:06;100533.09;;;0.56;100.00
21956;BME280;11142;49.930;8.606;2023-03-03T06:30:35;100544.03;;;0.64;100.00
21956;BME280;11142;49.930;8.606;2023-03-03T06:33:03;100562.88;;;0.56;100.00
21956;BME280;11142;49.930;8.606;2023-03-03T06:35:31;100564.63;;;0.53;100.00
21956;BME280;11142;49.930;8.606;2023-03-03T06:38:00;100563.03;;;0.46;100.00
21956;BME280;11142;49.930;8.606;2023-03-03T06:40:30;100574.03;;;0.48;100.00
21956;BME280;11142;49.930;8.606;2023-03-03T06:42:59;100568.03;;;0.51;100.00
21956;BME280;11142;49.930;8.606;2023-03-03T06:45:28;100568.13;;;0.46;100.00
21956;BME280;11142;49.930;8.606;2023-03-03T06:48:00;100564.72;;;0.47;100.00
21956;BME280;11142;49.930;8.606;2023-03-03T06:50:28;100569.03;;;0.42;100.00
21956;BME280;11142;49.930;8.606;2023-03-03T06:52:59;100565.84;;;0.27;100.00
21956;BME280;11142;49.930;8.606;2023-03-03T06:55:28;100568.97;;;0.47;100.00
21956;BME280;11142;49.930;8.606;2023-03-03T06:57:58;100573.25;;;0.45;100.00
21956;BME280;11142;49.930;8.606;2023-03-03T07:00:26;100575.59;;;0.60;100.00
21956;BME280;11142;49.930;8.606;2023-03-03T07:02:57;100579.84;;;0.60;100.00
21956;BME280;11142;49.930;8.606;2023-03-03T07:05:27;100589.44;;;0.44;100.00
21956;BME280;11142;49.930;8.606;2023-03-03T07:07:56;100590.25;;;0.46;100.00
21956;BME280;11142;49.930;8.606;2023-03-03T07:10:25;100596.59;;;0.79;100.00
21956;BME280;11142;49.930;8.606;2023-03-03T07:12:55;100588.78;;;0.86;100.00
21956;BME280;11142;49.930;8.606;2023-03-03T07:15:29;100598.28;;;0.77;100.00
21956;BME280;11142;49.930;8.606;2023-03-03T07:18:00;100603.16;;;0.93;100.00
21956;BME280;11142;49.930;8.606;2023-03-03T07:20:31;100613.13;;;1.08;100.00
21956;BME280;11142;49.930;8.606;2023-03-03T07:23:01;100619.66;;;1.26;100.00
21956;BME280;11142;49.930;8.606;2023-03-03T07:25:37;100623.53;;;1.47;100.00
21956;BME280;11142;49.930;8.606;2023-03-03T07:28:10;100625.91;;;1.56;100.00
21956;BME280;11142;49.930;8.606;2023-03-03T07:30:40;100627.94;;;1.39;100.00
21956;BME280;11142;49.930;8.606;2023-03-03T07:33:13;100635.56;;;1.40;100.00
21956;BME280;11142;49.930;8.606;2023-03-03T07:35:46;100630.81;;;1.68;100.00
21956;BME280;11142;49.930;8.606;2023-03-03T07:38:24;100625.13;;;1.52;100.00
21956;BME280;11142;49.930;8.606;2023-03-03T07:40:55;100642.66;;;1.72;100.00
21956;BME280;11142;49.930;8.606;2023-03-03T07:43:32;100649.13;;;1.93;100.00
21956;BME280;11142;49.930;8.606;2023-03-03T07:46:12;100656.66;;;1.99;100.00
21956;BME280;11142;49.930;8.606;2023-03-03T07:48:43;100652.66;;;1.84;100.00
21956;BME280;11142;49.930;8.606;2023-03-03T07:51:12;100660.31;;;1.86;100.00
21956;BME280;11142;49.930;8.606;2023-03-03T07:53:41;100656.72;;;1.96;100.00
21956;BME280;11142;49.930;8.606;2023-03-03T07:56:21;100666.69;;;2.09;100.00
21956;BME280;11142;49.930;8.606;2023-03-03T07:58:51;100667.06;;;2.33;100.00
21956;BME280;11142;49.930;8.606;2023-03-03T08:01:34;100670.81;;;2.58;100.00
21956;BME280;11142;49.930;8.606;2023-03-03T08:04:09;100679.41;;;2.12;100.00
21956;BME280;11142;49.930;8.606;2023-03-03T08:06:43;100672.81;;;2.44;100.00
21956;BME280;11142;49.930;8.606;2023-03-03T08:09:22;100687.94;;;2.13;100.00
21956;BME280;11142;49.930;8.606;2023-03-03T08:11:52;100682.13;;;2.86;100.00
21956;BME280;11142;49.930;8.606;2023-03-03T08:14:24;100697.44;;;2.89;100.00
21956;BME280;11142;49.930;8.606;2023-03-03T08:16:54;100695.03;;;2.43;100.00
21956;BME280;11142;49.930;8.606;2023-03-03T08:19:26;100699.06;;;2.93;100.00
21956;BME280;11142;49.930;8.606;2023-03-03T08:21:58;100693.56;;;3.08;100.00
21956;BME280;11142;49.930;8.606;2023-03-03T08:24:27;100691.28;;;2.96;100.00
21956;BME280;11142;49.930;8.606;2023-03-03T08:26:56;100685.50;;;3.23;100.00
21956;BME280;11142;49.930;8.606;2023-03-03T08:29:24;100696.88;;;3.13;100.00
21956;BME280;11142;49.930;8.606;2023-03-03T08:31:52;100694.28;;;3.15;100.00
21956;BME280;11142;49.930;8.606;2023-03-03T08:34:22;100692.16;;;3.98;100.00
21956;BME280;11142;49.930;8.606;2023-03-03T08:36:50;100697.06;;;4.07;100.00
21956;BME280;11142;49.930;8.606;2023-03-03T08:39:18;100703.47;;;4.23;100.00
21956;BME280;11142;49.930;8.606;2023-03-03T08:41:47;100696.81;;;3.84;100.00
21956;BME280;11142;49.930;8.606;2023-03-03T08:44:15;100695.28;;;3.45;100.00
21956;BME280;11142;49.930;8.606;2023-03-03T08:46:45;100699.44;;;3.83;100.00
21956;BME280;11142;49.930;8.606;2023-03-03T08:49:13;100701.94;;;3.52;100.00
21956;BME280;11142;49.930;8.606;2023-03-03T08:51:43;100709.03;;;3.76;100.00
21956;BME280;11142;49.930;8.606;2023-03-03T08:54:13;100701.03;;;4.77;100.00
21956;BME280;11142;49.930;8.606;2023-03-03T08:56:42;100709.59;;;4.78;100.00
21956;BME280;11142;49.930;8.606;2023-03-03T08:59:12;100699.84;;;4.60;100.00
21956;BME280;11142;49.930;8.606;2023-03-03T09:01:40;100704.47;;;4.76;100.00
21956;BME280;11142;49.930;8.606;2023-03-03T09:04:10;100698.88;;;4.64;100.00
21956;BME280;11142;49.930;8.606;2023-03-03T09:06:38;100707.31;;;4.67;100.00
21956;BME280;11142;49.930;8.606;2023-03-03T09:09:09;100710.34;;;3.91;100.00
21956;BME280;11142;49.930;8.606;2023-03-03T09:11:37;100705.91;;;4.57;100.00
21956;BME280;11142;49.930;8.606;2023-03-03T09:14:06;100711.97;;;4.84;100.00
21956;BME280;11142;49.930;8.606;2023-03-03T09:16:37;100712.59;;;5.20;100.00
21956;BME280;11142;49.930;8.606;2023-03-03T09:19:15;100709.38;;;5.40;100.00
21956;BME280;11142;49.930;8.606;2023-03-03T09:21:45;100715.59;;;5.59;100.00
21956;BME280;11142;49.930;8.606;2023-03-03T09:24:18;100707.81;;;4.80;100.00
21956;BME280;11142;49.930;8.606;2023-03-03T09:26:49;100708.63;;;5.36;100.00
21956;BME280;11142;49.930;8.606;2023-03-03T09:29:28;100709.69;;;5.03;100.00
21956;BME280;11142;49.930;8.606;2023-03-03T09:31:56;100712.19;;;5.04;100.00
21956;BME280;11142;49.930;8.606;2023-03-03T09:34:30;100718.00;;;5.39;100.00
21956;BME280;11142;49.930;8.606;2023-03-03T09:37:13;100723.63;;;5.76;100.00
21956;BME280;11142;49.930;8.606;2023-03-03T09:39:43;100732.31;;;5.98;100.00
21956;BME280;11142;49.930;8.606;2023-03-03T09:45:03;100732.41;;;6.68;100.00
21956;BME280;11142;49.930;8.606;2023-03-03T09:47:42;100716.44;;;7.03;98.23
21956;BME280;11142;49.930;8.606;2023-03-03T09:50:15;100719.22;;;7.40;92.26
21956;BME280;11142;49.930;8.606;2023-03-03T09:52:47;100717.44;;;7.63;87.05
21956;BME280;11142;49.930;8.606;2023-03-03T09:55:24;100727.88;;;8.79;79.95
21956;BME280;11142;49.930;8.606;2023-03-03T09:58:24;100730.97;;;7.69;84.38
21956;BME280;11142;49.930;8.606;2023-03-03T10:00:58;100733.81;;;8.03;82.14
21956;BME280;11142;49.930;8.606;2023-03-03T10:03:37;100736.16;;;7.47;85.26
21956;BME280;11142;49.930;8.606;2023-03-03T10:06:14;100727.81;;;7.41;89.74
21956;BME280;11142;49.930;8.606;2023-03-03T10:08:49;100733.47;;;8.70;83.46
21956;BME280;11142;49.930;8.606;2023-03-03T10:11:22;100738.13;;;8.43;77.25
21956;BME280;11142;49.930;8.606;2023-03-03T10:13:54;100736.19;;;8.28;83.49
21956;BME280;11142;49.930;8.606;2023-03-03T10:16:31;100741.63;;;8.02;82.15
21956;BME280;11142;49.930;8.606;2023-03-03T10:19:07;100746.22;;;8.36;84.49
21956;BME280;11142;49.930;8.606;2023-03-03T10:21:43;100748.88;;;9.64;72.63
21956;BME280;11142;49.930;8.606;2023-03-03T10:24:49;100756.59;;;7.94;83.40
21956;BME280;11142;49.930;8.606;2023-03-03T10:27:26;100741.88;;;7.76;85.32
21956;BME280;11142;49.930;8.606;2023-03-03T10:29:59;100747.16;;;9.45;75.15
21956;BME280;11142;49.930;8.606;2023-03-03T10:32:32;100748.34;;;9.74;71.60
21956;BME280;11142;49.930;8.606;2023-03-03T10:35:23;100745.97;;;11.79;58.81
21956;BME280;11142;49.930;8.606;2023-03-03T10:38:04;100745.81;;;11.66;59.46
21956;BME280;11142;49.930;8.606;2023-03-03T10:40:41;100756.69;;;10.81;57.93
21956;BME280;11142;49.930;8.606;2023-03-03T10:43:26;100759.88;;;9.86;64.99
21956;BME280;11142;49.930;8.606;2023-03-03T10:46:04;100752.28;;;11.59;59.76
21956;BME280;11142;49.930;8.606;2023-03-03T10:48:44;100755.75;;;10.16;61.20
21956;BME280;11142;49.930;8.606;2023-03-03T10:51:17;100754.22;;;9.95;67.23
21956;BME280;11142;49.930;8.606;2023-03-03T10:53:52;100757.22;;;9.34;66.83
21956;BME280;11142;49.930;8.606;2023-03-03T10:56:26;100760.56;;;9.36;73.06
21956;BME280;11142;49.930;8.606;2023-03-03T10:59:02;100772.19;;;10.49;63.31
21956;BME280;11142;49.930;8.606;2023-03-03T11:01:36;100771.44;;;8.70;71.27
21956;BME280;11142;49.930;8.606;2023-03-03T11:04:21;100782.81;;;9.76;67.80
21956;BME280;11142;49.930;8.606;2023-03-03T11:06:53;100760.63;;;9.88;67.80
21956;BME280;11142;49.930;8.606;2023-03-03T11:09:30;100774.31;;;8.03;76.23
21956;BME280;11142;49.930;8.606;2023-03-03T11:12:05;100764.59;;;9.42;69.40
21956;BME280;11142;49.930;8.606;2023-03-03T11:14:37;100759.94;;;10.19;63.20
21956;BME280;11142;49.930;8.606;2023-03-03T11:17:14;100759.44;;;11.40;58.18
21956;BME280;11142;49.930;8.606;2023-03-03T11:19:55;100761.94;;;11.87;53.80
21956;BME280;11142;49.930;8.606;2023-03-03T11:22:32;100758.16;;;11.47;53.58
21956;BME280;11142;49.930;8.606;2023-03-03T11:25:07;100756.72;;;12.88;51.54
21956;BME280;11142;49.930;8.606;2023-03-03T11:27:54;100749.56;;;13.32;48.13
21956;BME280;11142;49.930;8.606;2023-03-03T11:30:33;100764.00;;;14.54;44.68
21956;BME280;11142;49.930;8.606;2023-03-03T11:33:04;100748.81;;;15.21;42.17
21956;BME280;11142;49.930;8.606;2023-03-03T11:35:34;100744.44;;;15.69;41.68
21956;BME280;11142;49.930;8.606;2023-03-03T11:38:11;100743.75;;;13.28;46.17
21956;BME280;11142;49.930;8.606;2023-03-03T11:40:48;100747.63;;;14.88;41.66
21956;BME280;11142;49.930;8.606;2023-03-03T11:43:18;100736.59;;;13.04;43.78
21956;BME280;11142;49.930;8.606;2023-03-03T11:46:04;100738.44;;;12.61;48.12
21956;BME280;11142;49.930;8.606;2023-03-03T11:48:35;100724.69;;;11.73;50.33
21956;BME280;11142;49.930;8.606;2023-03-03T11:51:05;100731.22;;;11.94;50.79
21956;BME280;11142;49.930;8.606;2023-03-03T11:53:37;100726.34;;;12.74;48.21
21956;BME280;11142;49.930;8.606;2023-03-03T11:56:11;100722.09;;;10.80;55.18
21956;BME280;11142;49.930;8.606;2023-03-03T11:58:42;100709.63;;;11.78;52.53
21956;BME280;11142;49.930;8.606;2023-03-03T12:01:15;100705.75;;;15.14;43.63
21956;BME280;11142;49.930;8.606;2023-03-03T12:03:46;100704.03;;;13.90;45.21
21956;BME280;11142;49.930;8.606;2023-03-03T12:06:18;100701.91;;;13.57;45.64
21956;BME280;11142;49.930;8.606;2023-03-03T12:08:56;100697.69;;;13.15;46.32
21956;BME280;11142;49.930;8.606;2023-03-03T12:11:29;100699.34;;;14.20;44.72
21956;BME280;11142;49.930;8.606;2023-03-03T12:14:00;100701.59;;;13.74;43.80
21956;BME280;11142;49.930;8.606;2023-03-03T12:16:39;100697.03;;;12.70;46.09
21956;BME280;11142;49.930;8.606;2023-03-03T12:19:24;100688.47;;;11.84;49.13
21956;BME280;11142;49.930;8.606;2023-03-03T12:22:04;100693.41;;;13.14;46.46
21956;BME280;11142;49.930;8.606;2023-03-03T12:24:39;100690.31;;;14.74;43.52
21956;BME280;11142;49.930;8.606;2023-03-03T12:27:14;100690.56;;;12.35;48.43
21956;BME280;11142;49.930;8.606;2023-03-03T12:29:49;100682.41;;;12.27;47.35
21956;BME280;11142;49.930;8.606;2023-03-03T12:32:25;100681.25;;;13.54;45.58
21956;BME280;11142;49.930;8.606;2023-03-03T12:34:56;100677.94;;;16.93;38.53
21956;BME280;11142;49.930;8.606;2023-03-03T12:37:27;100673.38;;;16.19;38.42
21956;BME280;11142;49.930;8.606;2023-03-03T12:40:03;100680.06;;;14.71;40.42
21956;BME280;11142;49.930;8.606;2023-03-03T12:42:37;100666.97;;;17.84;35.41
21956;BME280;11142;49.930;8.606;2023-03-03T12:45:16;100669.81;;;18.22;34.40
21956;BME280;11142;49.930;8.606;2023-03-03T12:47:48;100663.72;;;17.91;33.91
21956;BME280;11142;49.930;8.606;2023-03-03T12:50:22;100663.84;;;16.74;35.33
21956;BME280;11142;49.930;8.606;2023-03-03T12:52:54;100664.03;;;17.25;36.36
21956;BME280;11142;49.930;8.606;2023-03-03T12:55:28;100663.13;;;15.01;39.96
21956;BME280;11142;49.930;8.606;2023-03-03T12:58:01;100653.75;;;19.43;33.67
21956;BME280;11142;49.930;8.606;2023-03-03T13:00:42;100657.78;;;17.37;35.29
21956;BME280;11142;49.930;8.606;2023-03-03T13:03:19;100650.63;;;16.20;36.66
21956;BME280;11142;49.930;8.606;2023-03-03T13:05:59;100649.66;;;18.32;34.46
21956;BME280;11142;49.930;8.606;2023-03-03T13:08:39;100659.84;;;17.95;34.31
21956;BME280;11142;49.930;8.606;2023-03-03T13:11:17;100656.13;;;14.16;40.38
21956;BME280;11142;49.930;8.606;2023-03-03T13:13:51;100646.56;;;15.93;38.38
21956;BME280;11142;49.930;8.606;2023-03-03T13:16:20;100647.53;;;16.48;37.34